createdAt,value
2022-11-30T00:00:27.440Z,5.30
2022-11-30T00:02:55.245Z,5.30
2022-11-30T00:05:22.561Z,5.30
2022-11-30T00:07:49.675Z,5.30
2022-11-30T00:10:16.862Z,5.30
2022-11-30T00:12:43.874Z,5.20
2022-11-30T00:15:14.037Z,5.20
2022-11-30T00:17:41.013Z,6.40
2022-11-30T00:20:08.611Z,5.20
2022-11-30T00:22:35.514Z,5.20
2022-11-30T00:25:03.451Z,7.20
2022-11-30T00:27:30.972Z,5.20
2022-11-30T00:29:57.998Z,5.20
2022-11-30T00:32:25.719Z,5.20
2022-11-30T00:34:52.676Z,5.20
2022-11-30T00:37:19.350Z,5.20
2022-11-30T00:39:45.960Z,5.10
2022-11-30T00:42:12.803Z,6.60
2022-11-30T00:44:39.524Z,5.10
2022-11-30T00:47:06.270Z,5.10
2022-11-30T00:49:33.936Z,5.10
2022-11-30T00:52:00.916Z,5.10
2022-11-30T00:54:27.560Z,6.70
2022-11-30T00:56:54.559Z,7.00
2022-11-30T00:59:21.312Z,6.70
2022-11-30T01:01:48.103Z,5.20
2022-11-30T01:04:14.713Z,5.10
2022-11-30T01:06:41.394Z,5.10
2022-11-30T01:09:08.231Z,5.00
2022-11-30T01:11:34.843Z,5.10
2022-11-30T01:14:02.458Z,5.20
2022-11-30T01:16:30.682Z,5.10
2022-11-30T01:18:57.428Z,5.10
2022-11-30T01:21:25.306Z,6.40
2022-11-30T01:23:52.223Z,5.10
2022-11-30T01:26:19.132Z,5.10
2022-11-30T01:28:49.402Z,5.10
2022-11-30T01:31:17.028Z,5.10
2022-11-30T01:33:43.668Z,5.10
2022-11-30T01:36:11.324Z,5.10
2022-11-30T01:38:42.601Z,6.70
2022-11-30T01:41:10.177Z,5.90
2022-11-30T01:43:41.267Z,5.00
2022-11-30T01:46:23.645Z,5.00
2022-11-30T01:48:55.480Z,5.00
2022-11-30T01:51:22.381Z,5.00
2022-11-30T01:53:49.121Z,5.00
2022-11-30T01:56:15.749Z,4.90
2022-11-30T01:58:42.589Z,5.00
2022-11-30T02:01:09.266Z,5.00
2022-11-30T02:03:40.264Z,7.40
2022-11-30T02:06:07.635Z,5.90
2022-11-30T02:08:34.560Z,4.90
2022-11-30T02:11:04.199Z,4.90
2022-11-30T02:13:31.340Z,4.90
2022-11-30T02:16:13.306Z,6.30
2022-11-30T02:18:58.744Z,4.80
2022-11-30T02:21:44.163Z,5.70
2022-11-30T02:24:17.145Z,4.80
2022-11-30T02:27:02.511Z,4.80
2022-11-30T02:29:39.609Z,4.80
2022-11-30T02:32:08.982Z,4.80
2022-11-30T02:34:37.748Z,4.80
2022-11-30T02:37:06.731Z,5.80
2022-11-30T02:39:33.708Z,4.80
2022-11-30T02:42:00.451Z,4.80
2022-11-30T02:44:27.989Z,4.80
2022-11-30T02:47:14.934Z,4.80
2022-11-30T02:49:45.431Z,4.80
2022-11-30T02:52:13.296Z,4.80
2022-11-30T02:54:40.061Z,4.80
2022-11-30T02:57:06.913Z,4.70
2022-11-30T02:59:33.725Z,4.70
2022-11-30T03:02:00.497Z,4.70
2022-11-30T03:04:27.159Z,4.70
2022-11-30T03:06:53.853Z,4.80
2022-11-30T03:09:20.584Z,4.70
2022-11-30T03:11:47.325Z,4.70
2022-11-30T03:14:14.271Z,4.70
2022-11-30T03:16:41.114Z,4.70
2022-11-30T03:19:07.896Z,4.70
2022-11-30T03:21:34.597Z,4.70
2022-11-30T03:24:01.322Z,4.70
2022-11-30T03:26:28.184Z,4.70
2022-11-30T03:28:54.919Z,4.70
2022-11-30T03:31:21.907Z,4.70
2022-11-30T03:33:48.612Z,4.70
2022-11-30T03:36:15.347Z,4.70
2022-11-30T03:38:42.085Z,4.70
2022-11-30T03:41:13.538Z,4.60
2022-11-30T03:43:40.849Z,4.60
2022-11-30T03:46:07.696Z,4.60
2022-11-30T03:48:36.156Z,3.70
2022-11-30T03:51:04.331Z,4.70
2022-11-30T03:53:31.480Z,6.00
2022-11-30T03:55:59.510Z,4.60
2022-11-30T03:58:26.291Z,4.60
2022-11-30T04:01:01.924Z,4.70
2022-11-30T04:03:29.460Z,4.70
2022-11-30T04:05:56.540Z,4.70
2022-11-30T04:08:23.466Z,4.70
2022-11-30T04:10:54.028Z,4.70
2022-11-30T04:13:21.541Z,4.70
2022-11-30T04:15:49.047Z,4.60
2022-11-30T04:18:15.917Z,4.60
2022-11-30T04:20:42.941Z,4.70
2022-11-30T04:23:10.303Z,4.60
2022-11-30T04:25:40.367Z,4.60
2022-11-30T04:28:07.700Z,4.60
2022-11-30T04:30:34.896Z,4.60
2022-11-30T04:33:01.768Z,4.60
2022-11-30T04:35:28.602Z,4.60
2022-11-30T04:37:55.429Z,4.60
2022-11-30T04:40:22.244Z,4.60
2022-11-30T04:42:48.906Z,4.60
2022-11-30T04:45:15.694Z,4.70
2022-11-30T04:47:42.487Z,4.60
2022-11-30T04:50:09.306Z,4.70
2022-11-30T04:52:36.153Z,4.60
2022-11-30T04:55:04.376Z,4.60
2022-11-30T04:57:31.784Z,4.70
2022-11-30T04:59:58.654Z,4.70
2022-11-30T05:02:25.401Z,4.60
2022-11-30T05:04:52.229Z,4.60
2022-11-30T05:07:19.049Z,4.60
2022-11-30T05:09:45.726Z,4.70
2022-11-30T05:12:12.378Z,4.70
2022-11-30T05:14:39.067Z,4.60
2022-11-30T05:17:05.730Z,4.70
2022-11-30T05:19:32.357Z,4.60
2022-11-30T05:21:59.114Z,4.60
2022-11-30T05:24:25.813Z,4.70
2022-11-30T05:26:52.471Z,4.70
2022-11-30T05:29:19.170Z,4.60
2022-11-30T05:31:45.863Z,5.40
2022-11-30T05:34:12.576Z,4.60
2022-11-30T05:36:39.322Z,4.50
2022-11-30T05:39:06.069Z,4.60
2022-11-30T05:41:32.911Z,4.60
2022-11-30T05:43:59.624Z,4.60
2022-11-30T05:46:26.460Z,4.60
2022-11-30T05:48:53.130Z,4.60
2022-11-30T05:51:20.332Z,4.60
2022-11-30T05:53:47.492Z,4.50
2022-11-30T05:56:15.911Z,4.60
2022-11-30T05:58:42.985Z,4.60
2022-11-30T06:01:17.093Z,4.60
2022-11-30T06:03:43.813Z,4.60
2022-11-30T06:06:10.529Z,4.60
2022-11-30T06:08:37.212Z,4.60
2022-11-30T06:11:04.030Z,4.60
2022-11-30T06:13:32.636Z,4.60
2022-11-30T06:16:03.295Z,4.60
2022-11-30T06:18:30.302Z,4.60
2022-11-30T06:21:03.416Z,4.60
2022-11-30T06:23:30.368Z,4.60
2022-11-30T06:25:57.025Z,4.60
2022-11-30T06:28:25.043Z,4.60
2022-11-30T06:30:51.688Z,4.60
2022-11-30T06:33:21.992Z,4.60
2022-11-30T06:35:48.818Z,4.50
2022-11-30T06:38:15.483Z,4.50
2022-11-30T06:40:42.143Z,4.60
2022-11-30T06:43:08.834Z,5.80
2022-11-30T06:45:35.493Z,4.60
2022-11-30T06:48:02.215Z,6.00
2022-11-30T06:50:28.872Z,4.60
2022-11-30T06:52:56.390Z,4.60
2022-11-30T06:55:23.734Z,4.60
2022-11-30T06:57:50.678Z,4.60
2022-11-30T07:00:17.593Z,4.60
2022-11-30T07:02:44.318Z,4.60
2022-11-30T07:05:10.965Z,4.60
2022-11-30T07:07:37.649Z,4.50
2022-11-30T07:10:04.405Z,6.20
2022-11-30T07:12:31.055Z,4.70
2022-11-30T07:14:57.676Z,4.70
2022-11-30T07:17:24.320Z,6.10
2022-11-30T07:19:51.011Z,4.60
2022-11-30T07:22:17.704Z,4.60
2022-11-30T07:25:02.982Z,4.60
2022-11-30T07:27:29.653Z,5.20
2022-11-30T07:29:56.294Z,4.70
2022-11-30T07:32:22.997Z,4.70
2022-11-30T07:34:49.978Z,4.70
2022-11-30T07:37:16.845Z,6.30
2022-11-30T07:39:43.545Z,3.50
2022-11-30T07:42:10.218Z,4.80
2022-11-30T07:44:36.890Z,4.80
2022-11-30T07:47:03.652Z,4.80
2022-11-30T07:49:30.320Z,4.80
2022-11-30T07:51:56.968Z,4.90
2022-11-30T07:54:23.633Z,4.90
2022-11-30T07:56:50.299Z,4.80
2022-11-30T07:59:17.035Z,4.80
2022-11-30T08:01:43.823Z,4.80
2022-11-30T08:04:13.932Z,4.90
2022-11-30T08:06:40.721Z,4.90
2022-11-30T08:09:07.439Z,4.80
2022-11-30T08:11:34.942Z,5.70
2022-11-30T08:14:02.308Z,4.90
2022-11-30T08:16:29.652Z,4.90
2022-11-30T08:18:56.994Z,4.90
2022-11-30T08:21:23.875Z,4.90
2022-11-30T08:23:56.062Z,4.90
2022-11-30T08:26:23.865Z,4.90
2022-11-30T08:28:51.493Z,5.00
2022-11-30T08:31:19.821Z,4.90
2022-11-30T08:33:46.723Z,5.00
2022-11-30T08:36:14.677Z,5.00
2022-11-30T08:38:41.992Z,5.00
2022-11-30T08:41:09.119Z,5.10
2022-11-30T08:43:35.875Z,5.00
2022-11-30T08:46:11.396Z,5.10
2022-11-30T08:48:48.200Z,5.20
2022-11-30T08:51:15.843Z,5.20
2022-11-30T08:53:42.846Z,5.20
2022-11-30T08:56:19.698Z,5.20
2022-11-30T08:58:46.723Z,5.30
2022-11-30T09:01:27.060Z,5.20
2022-11-30T09:03:57.312Z,5.30
2022-11-30T09:06:28.369Z,5.30
2022-11-30T09:08:56.806Z,3.00
2022-11-30T09:11:23.450Z,5.40
2022-11-30T09:13:50.290Z,5.40
2022-11-30T09:16:18.027Z,7.60
2022-11-30T09:18:45.040Z,5.50
2022-11-30T09:21:13.305Z,5.50
2022-11-30T09:23:40.141Z,5.50
2022-11-30T09:26:08.268Z,5.50
2022-11-30T09:28:35.488Z,7.10
2022-11-30T09:31:02.967Z,5.50
2022-11-30T09:33:30.042Z,5.60
2022-11-30T09:35:57.352Z,5.60
2022-11-30T09:38:24.035Z,5.50
2022-11-30T09:41:11.525Z,5.60
2022-11-30T09:43:48.124Z,5.60
2022-11-30T09:46:14.890Z,5.50
2022-11-30T09:48:49.808Z,7.10
2022-11-30T09:51:22.566Z,5.60
2022-11-30T09:53:53.286Z,5.60
2022-11-30T09:56:29.547Z,5.70
2022-11-30T09:58:58.074Z,5.60
2022-11-30T10:01:24.924Z,5.70
2022-11-30T10:03:51.810Z,5.70
2022-11-30T10:06:21.161Z,5.70
2022-11-30T10:09:06.303Z,5.70
2022-11-30T10:11:43.724Z,5.70
2022-11-30T10:14:15.243Z,5.70
2022-11-30T10:16:50.092Z,5.60
2022-11-30T10:19:41.454Z,6.80
2022-11-30T10:22:37.250Z,5.70
2022-11-30T10:25:23.529Z,5.70
2022-11-30T10:27:51.469Z,5.70
2022-11-30T10:30:22.526Z,5.70
2022-11-30T10:32:54.233Z,5.70
2022-11-30T10:35:34.760Z,5.80
2022-11-30T10:38:04.889Z,5.80
2022-11-30T10:40:38.775Z,5.80
2022-11-30T10:43:15.636Z,5.80
2022-11-30T10:45:46.215Z,5.80
2022-11-30T10:48:17.778Z,5.80
2022-11-30T10:50:44.527Z,5.90
2022-11-30T10:53:11.873Z,5.90
2022-11-30T10:56:00.210Z,5.90
2022-11-30T10:58:29.051Z,5.90
2022-11-30T11:01:06.774Z,6.00
2022-11-30T11:03:33.677Z,6.00
2022-11-30T11:06:05.797Z,6.10
2022-11-30T11:08:32.730Z,6.10
2022-11-30T11:10:59.399Z,6.10
2022-11-30T11:13:38.756Z,6.10
2022-11-30T11:16:06.747Z,6.10
2022-11-30T11:18:34.435Z,6.20
2022-11-30T11:21:16.584Z,7.80
2022-11-30T11:23:44.618Z,6.10
2022-11-30T11:26:20.152Z,6.10
2022-11-30T11:28:48.198Z,6.20
2022-11-30T11:31:35.180Z,6.20
2022-11-30T11:34:02.280Z,6.20
2022-11-30T11:36:30.125Z,6.20
2022-11-30T11:38:57.384Z,6.30
2022-11-30T11:41:26.699Z,6.20
2022-11-30T11:43:59.330Z,7.50
2022-11-30T11:46:26.237Z,6.00
2022-11-30T11:49:01.695Z,6.10
2022-11-30T11:51:31.530Z,6.00
2022-11-30T11:54:10.177Z,6.00
2022-11-30T11:56:37.686Z,6.00
2022-11-30T11:59:11.374Z,6.00
2022-11-30T12:01:40.346Z,6.10
2022-11-30T12:04:26.134Z,6.10
2022-11-30T12:06:54.089Z,6.10
2022-11-30T12:09:33.951Z,6.10
2022-11-30T12:12:00.601Z,6.10
2022-11-30T12:14:27.850Z,6.10
2022-11-30T12:17:00.816Z,6.10
2022-11-30T12:19:27.517Z,6.10
2022-11-30T12:21:56.969Z,6.10
2022-11-30T12:24:23.559Z,6.10
2022-11-30T12:26:56.290Z,6.10
2022-11-30T12:29:41.850Z,6.00
2022-11-30T12:32:08.623Z,6.00
2022-11-30T12:34:35.335Z,6.00
2022-11-30T12:37:10.592Z,6.10
2022-11-30T12:39:52.555Z,6.10
2022-11-30T12:42:25.416Z,6.10
2022-11-30T12:44:59.221Z,6.10
2022-11-30T12:47:40.990Z,6.10
2022-11-30T12:50:15.964Z,6.10
2022-11-30T12:52:46.506Z,6.50
2022-11-30T12:55:31.478Z,6.10
2022-11-30T12:58:17.212Z,6.10
2022-11-30T13:01:09.695Z,6.00
2022-11-30T13:03:56.714Z,6.00
2022-11-30T13:06:26.565Z,6.00
2022-11-30T13:09:10.575Z,6.00
2022-11-30T13:11:38.276Z,6.00
2022-11-30T13:14:07.666Z,7.10
2022-11-30T13:16:34.742Z,6.00
2022-11-30T13:19:10.594Z,6.00
2022-11-30T13:21:44.881Z,6.00
2022-11-30T13:24:11.458Z,6.00
2022-11-30T13:26:50.279Z,7.80
2022-11-30T13:29:35.787Z,6.00
2022-11-30T13:32:07.378Z,6.00
2022-11-30T13:34:34.074Z,6.10
2022-11-30T13:37:03.866Z,7.20
2022-11-30T13:39:35.705Z,6.00
2022-11-30T13:42:02.351Z,5.90
2022-11-30T13:44:37.032Z,5.90
2022-11-30T13:47:05.980Z,5.90
2022-11-30T13:49:35.608Z,5.90
2022-11-30T13:52:22.243Z,5.90
2022-11-30T13:54:50.793Z,5.90
2022-11-30T13:57:19.432Z,5.80
2022-11-30T13:59:51.466Z,5.80
2022-11-30T14:02:33.663Z,5.80
2022-11-30T14:05:18.917Z,5.70
2022-11-30T14:07:47.132Z,5.70
2022-11-30T14:10:32.369Z,5.70
2022-11-30T14:13:00.375Z,5.60
2022-11-30T14:15:39.210Z,5.60
2022-11-30T14:18:08.906Z,5.60
2022-11-30T14:20:37.957Z,5.50
2022-11-30T14:23:10.744Z,6.50
2022-11-30T14:25:40.837Z,5.50
2022-11-30T14:28:09.525Z,7.00
2022-11-30T14:30:39.343Z,5.60
2022-11-30T14:33:16.557Z,5.50
2022-11-30T14:35:48.946Z,5.50
2022-11-30T14:38:22.157Z,5.50
2022-11-30T14:40:52.651Z,5.50
2022-11-30T14:43:19.297Z,5.50
2022-11-30T14:46:09.208Z,5.50
2022-11-30T14:48:39.638Z,5.40
2022-11-30T14:51:06.341Z,5.40
2022-11-30T14:53:39.053Z,5.40
2022-11-30T14:56:24.527Z,5.40
2022-11-30T14:58:55.901Z,5.40
2022-11-30T15:01:27.081Z,5.40
2022-11-30T15:03:55.263Z,5.40
2022-11-30T15:06:24.519Z,5.40
2022-11-30T15:08:52.950Z,5.40
2022-11-30T15:11:20.394Z,5.40
2022-11-30T15:13:48.210Z,7.20
2022-11-30T15:16:25.897Z,5.50
2022-11-30T15:18:53.793Z,5.30
2022-11-30T15:21:22.494Z,5.30
2022-11-30T15:23:51.416Z,5.30
2022-11-30T15:26:25.664Z,5.30
2022-11-30T15:28:58.228Z,5.30
2022-11-30T15:31:27.089Z,5.20
2022-11-30T15:33:53.824Z,5.20
2022-11-30T15:36:32.297Z,5.20
2022-11-30T15:39:02.397Z,5.20
2022-11-30T15:41:29.070Z,5.20
2022-11-30T15:43:56.949Z,5.20
2022-11-30T15:46:34.345Z,5.20
2022-11-30T15:49:13.946Z,5.10
2022-11-30T15:51:41.805Z,5.10
2022-11-30T15:54:08.517Z,5.20
2022-11-30T15:56:35.210Z,5.20
2022-11-30T15:59:04.684Z,6.50
2022-11-30T16:01:34.292Z,5.20
2022-11-30T16:04:02.452Z,5.10
2022-11-30T16:06:30.456Z,7.10
2022-11-30T16:08:57.476Z,5.10
2022-11-30T16:11:24.183Z,5.10
2022-11-30T16:13:50.833Z,5.10
2022-11-30T16:16:22.374Z,5.10
2022-11-30T16:18:49.934Z,5.20
2022-11-30T16:21:17.810Z,6.20
2022-11-30T16:23:44.854Z,5.10
2022-11-30T16:26:36.087Z,7.30
2022-11-30T16:29:04.475Z,5.10
2022-11-30T16:31:31.249Z,5.10
2022-11-30T16:33:57.989Z,5.10
2022-11-30T16:36:24.684Z,5.10
2022-11-30T16:38:51.954Z,6.70
2022-11-30T16:41:20.236Z,5.10
2022-11-30T16:43:47.958Z,5.10
2022-11-30T16:46:16.491Z,6.10
2022-11-30T16:48:43.240Z,6.60
2022-11-30T16:51:13.932Z,5.10
2022-11-30T16:53:40.578Z,5.10
2022-11-30T16:56:09.819Z,5.20
2022-11-30T16:58:36.557Z,5.20
2022-11-30T17:01:04.355Z,5.10
2022-11-30T17:03:32.970Z,5.10
2022-11-30T17:05:59.811Z,5.10
2022-11-30T17:08:26.487Z,5.10
2022-11-30T17:10:54.124Z,6.80
2022-11-30T17:13:21.132Z,5.10
2022-11-30T17:15:48.345Z,5.10
2022-11-30T17:18:15.164Z,5.00
2022-11-30T17:20:42.032Z,5.00
2022-11-30T17:23:08.733Z,5.00
2022-11-30T17:25:35.425Z,6.60
2022-11-30T17:28:02.132Z,6.40
2022-11-30T17:30:28.924Z,4.90
2022-11-30T17:32:55.665Z,6.30
2022-11-30T17:35:22.312Z,4.90
2022-11-30T17:37:48.983Z,4.90
2022-11-30T17:40:16.200Z,4.80
2022-11-30T17:42:43.251Z,4.80
2022-11-30T17:45:10.400Z,4.80
2022-11-30T17:47:37.677Z,4.80
2022-11-30T17:50:05.230Z,4.80
2022-11-30T17:52:31.963Z,4.80
2022-11-30T17:54:58.744Z,4.90
2022-11-30T17:57:25.482Z,4.90
2022-11-30T17:59:52.092Z,7.10
2022-11-30T18:02:18.787Z,4.80
2022-11-30T18:04:45.799Z,4.80
2022-11-30T18:07:12.808Z,4.80
2022-11-30T18:09:42.509Z,4.80
2022-11-30T18:12:10.681Z,4.80
2022-11-30T18:14:37.362Z,4.80
2022-11-30T18:17:04.353Z,4.80
2022-11-30T18:19:31.061Z,4.80
2022-11-30T18:21:57.691Z,4.80
2022-11-30T18:24:25.790Z,6.20
2022-11-30T18:26:52.844Z,4.80
2022-11-30T18:29:19.517Z,6.60
2022-11-30T18:31:48.370Z,4.70
2022-11-30T18:34:15.305Z,4.70
2022-11-30T18:36:42.117Z,4.70
2022-11-30T18:39:08.991Z,4.80
2022-11-30T18:41:35.705Z,4.70
2022-11-30T18:44:02.351Z,4.70
2022-11-30T18:46:29.719Z,4.70
2022-11-30T18:48:56.623Z,4.80
2022-11-30T18:51:24.457Z,4.80
2022-11-30T18:53:57.547Z,4.80
2022-11-30T18:56:27.664Z,4.80
2022-11-30T18:58:55.681Z,4.80
2022-11-30T19:01:22.524Z,4.80
2022-11-30T19:03:53.154Z,6.30
2022-11-30T19:06:20.372Z,4.80
2022-11-30T19:08:47.844Z,4.80
2022-11-30T19:11:15.154Z,4.80
2022-11-30T19:13:41.982Z,4.80
2022-11-30T19:16:09.911Z,4.80
2022-11-30T19:18:37.611Z,4.70
2022-11-30T19:21:12.210Z,4.70
2022-11-30T19:23:39.320Z,4.70
2022-11-30T19:26:07.269Z,4.80
2022-11-30T19:28:34.564Z,4.80
2022-11-30T19:31:05.936Z,4.80
2022-11-30T19:33:34.344Z,4.80
2022-11-30T19:36:04.447Z,4.70
2022-11-30T19:38:31.110Z,4.70
2022-11-30T19:40:57.888Z,5.20
2022-11-30T19:43:24.593Z,4.70
2022-11-30T19:45:51.336Z,4.70
2022-11-30T19:48:18.041Z,4.70
2022-11-30T19:50:44.675Z,4.70
2022-11-30T19:53:11.362Z,4.80
2022-11-30T19:55:39.156Z,4.70
2022-11-30T19:58:05.898Z,6.20
2022-11-30T20:00:32.607Z,4.60
2022-11-30T20:02:59.333Z,4.70
2022-11-30T20:05:26.120Z,4.70
2022-11-30T20:07:52.870Z,5.60
2022-11-30T20:10:19.590Z,4.70
2022-11-30T20:12:46.281Z,4.60
2022-11-30T20:15:12.944Z,4.70
2022-11-30T20:17:39.774Z,4.70
2022-11-30T20:20:06.605Z,5.70
2022-11-30T20:22:33.280Z,4.60
2022-11-30T20:24:59.947Z,4.60
2022-11-30T20:27:26.772Z,4.60
2022-11-30T20:29:53.517Z,4.60
2022-11-30T20:32:20.322Z,4.60
2022-11-30T20:34:47.340Z,4.50
2022-11-30T20:37:15.782Z,4.50
2022-11-30T20:39:45.787Z,4.40
2022-11-30T20:42:13.369Z,4.40
2022-11-30T20:44:39.969Z,4.40
2022-11-30T20:47:06.737Z,4.40
2022-11-30T20:49:33.410Z,4.40
2022-11-30T20:52:00.046Z,4.30
2022-11-30T20:54:28.654Z,4.30
2022-11-30T20:56:57.354Z,4.20
2022-11-30T20:59:26.472Z,4.30
2022-11-30T21:01:56.772Z,4.20
2022-11-30T21:04:24.454Z,4.20
2022-11-30T21:06:51.405Z,4.80
2022-11-30T21:09:19.032Z,4.30
2022-11-30T21:11:46.117Z,4.20
2022-11-30T21:14:12.811Z,4.20
2022-11-30T21:16:39.669Z,4.20
2022-11-30T21:19:06.546Z,4.10
2022-11-30T21:21:34.697Z,4.10
2022-11-30T21:24:02.688Z,4.10
2022-11-30T21:26:33.725Z,4.00
2022-11-30T21:29:01.803Z,5.40
2022-11-30T21:31:28.731Z,4.80
2022-11-30T21:33:55.509Z,4.00
2022-11-30T21:36:22.729Z,3.90
2022-11-30T21:39:04.099Z,3.90
2022-11-30T21:41:31.457Z,3.90
2022-11-30T21:43:58.097Z,3.80
2022-11-30T21:46:24.877Z,3.80
2022-11-30T21:48:52.354Z,3.70
2022-11-30T21:51:20.424Z,3.70
2022-11-30T21:53:49.316Z,3.70
2022-11-30T21:56:17.650Z,3.70
2022-11-30T21:58:45.401Z,3.60
2022-11-30T22:01:13.481Z,3.60
2022-11-30T22:03:40.294Z,5.20
2022-11-30T22:06:11.538Z,3.50
2022-11-30T22:08:38.561Z,3.40
2022-11-30T22:11:15.445Z,3.40
2022-11-30T22:13:42.340Z,3.30
2022-11-30T22:16:09.188Z,3.30
2022-11-30T22:18:36.337Z,3.30
2022-11-30T22:21:04.734Z,3.20
2022-11-30T22:23:32.550Z,3.10
2022-11-30T22:26:12.097Z,3.10
2022-11-30T22:28:39.272Z,3.00
2022-11-30T22:31:06.847Z,2.90
2022-11-30T22:33:34.124Z,2.80
2022-11-30T22:36:01.256Z,3.00
2022-11-30T22:38:28.491Z,3.50
2022-11-30T22:40:55.345Z,2.80
2022-11-30T22:43:22.070Z,2.80
2022-11-30T22:45:48.854Z,2.80
2022-11-30T22:48:15.497Z,2.60
2022-11-30T22:50:42.093Z,5.20
2022-11-30T22:53:08.782Z,2.60
2022-11-30T22:55:35.509Z,2.70
2022-11-30T22:58:02.274Z,2.60
2022-11-30T23:00:28.904Z,2.60
2022-11-30T23:02:55.643Z,2.60
2022-11-30T23:05:22.302Z,2.60
2022-11-30T23:07:48.991Z,2.60
2022-11-30T23:10:16.424Z,2.60
2022-11-30T23:12:59.148Z,2.60
2022-11-30T23:15:26.648Z,2.50
2022-11-30T23:17:53.267Z,2.50
2022-11-30T23:20:22.544Z,2.50
2022-11-30T23:22:49.243Z,2.60
2022-11-30T23:25:16.768Z,2.50
2022-11-30T23:27:43.576Z,2.50
2022-11-30T23:30:10.351Z,2.50
2022-11-30T23:32:37.076Z,2.40
2022-11-30T23:35:03.763Z,2.40
2022-11-30T23:37:30.552Z,5.00
2022-11-30T23:39:57.166Z,2.50
2022-11-30T23:42:23.838Z,2.50
2022-11-30T23:44:57.498Z,2.50
2022-11-30T23:47:24.220Z,2.50
2022-11-30T23:49:50.915Z,2.40
2022-11-30T23:52:17.668Z,2.50
2022-11-30T23:54:44.327Z,2.40
2022-11-30T23:57:10.939Z,2.50
2022-11-30T23:59:37.528Z,3.90
